Time;durP1;ratioP1;P1;durP2;ratioP2;P2;SDS_P1;SDS_P2;PMS_P1;PMS_P2;Temp;Humidity;BMP_temperature;BMP_pressure;BME280_temperature;BME280_humidity;BME280_pressure;Samples;Min_cycle;Max_cycle;Signal;HPM_P1;HPM_P2
2021/04/01 00:00:34;;;;;;;30.27;21.13;;;15.70;57.50;;;;;;5046484;28;20593;-54
2021/04/01 00:03:00;;;;;;;26.88;20.23;;;15.70;57.60;;;;;;5044468;28;20033;-55
2021/04/01 00:05:27;;;;;;;29.83;19.45;;;15.60;58.50;;;;;;5064482;28;20085;-53
2021/04/01 00:07:53;;;;;;;26.05;18.55;;;15.50;59.20;;;;;;5050176;28;20025;-57
2021/04/01 00:10:23;;;;;;;29.88;20.05;;;15.50;59.80;;;;;;5063733;28;20055;-54
2021/04/01 00:12:48;;;;;;;27.45;20.00;;;15.50;59.20;;;;;;5077100;28;20039;-54
2021/04/01 00:15:15;;;;;;;28.40;20.25;;;15.50;59.20;;;;;;5071129;28;20032;-57
2021/04/01 00:17:42;;;;;;;29.70;20.98;;;15.40;60.00;;;;;;5057535;28;20028;-57
2021/04/01 00:20:11;;;;;;;25.95;19.33;;;15.20;59.90;;;;;;5060855;28;20033;-57
2021/04/01 00:22:38;;;;;;;27.65;19.05;;;15.20;60.60;;;;;;5055591;28;20036;-55
2021/04/01 00:25:06;;;;;;;23.40;18.77;;;15.10;61.10;;;;;;5073672;28;20120;-53
2021/04/01 00:27:31;;;;;;;29.88;20.65;;;15.10;61.20;;;;;;5062481;28;20083;-55
2021/04/01 00:29:57;;;;;;;30.05;21.13;;;15.10;60.40;;;;;;5087016;28;20598;-54
2021/04/01 00:32:22;;;;;;;29.55;20.13;;;15.10;60.20;;;;;;5093043;28;20095;-50
2021/04/01 00:34:48;;;;;;;27.98;20.30;;;15.00;61.20;;;;;;5094863;28;20043;-57
2021/04/01 00:37:14;;;;;;;26.42;20.25;;;15.00;61.80;;;;;;5089446;28;20032;-55
2021/04/01 00:39:39;;;;;;;26.25;19.25;;;14.90;62.20;;;;;;5071314;28;20063;-54
2021/04/01 00:42:05;;;;;;;27.73;19.92;;;14.90;62.00;;;;;;5082945;28;20395;-56
2021/04/01 00:44:31;;;;;;;26.15;20.65;;;14.90;62.00;;;;;;5089431;28;20037;-55
2021/04/01 00:46:56;;;;;;;30.98;21.45;;;14.90;61.60;;;;;;5084681;28;20540;-56
2021/04/01 00:49:22;;;;;;;28.00;21.27;;;14.70;61.90;;;;;;5094027;28;20039;-53
2021/04/01 00:51:48;;;;;;;31.58;22.00;;;14.60;61.00;;;;;;5077446;28;20028;-56
2021/04/01 00:54:14;;;;;;;32.92;21.75;;;14.60;60.70;;;;;;5088149;28;20032;-53
2021/04/01 00:56:40;;;;;;;31.75;22.00;;;14.70;60.30;;;;;;5094264;28;20051;-53
2021/04/01 00:59:07;;;;;;;28.85;20.42;;;14.60;60.70;;;;;;5082445;28;20825;-51
2021/04/01 01:03:58;;;;;;;25.92;19.52;;;14.60;61.80;;;;;;5092661;28;20051;-53
2021/04/01 01:06:24;;;;;;;27.73;18.83;;;14.60;62.00;;;;;;5086550;28;20132;-54
2021/04/01 01:08:50;;;;;;;27.70;20.83;;;14.50;62.60;;;;;;5083360;28;20118;-56
2021/04/01 01:11:15;;;;;;;31.77;21.08;;;14.50;62.50;;;;;;5054089;28;20421;-54
2021/04/01 01:13:41;;;;;;;28.65;21.30;;;14.50;61.30;;;;;;5085563;28;20573;-54
2021/04/01 01:16:07;;;;;;;30.33;20.42;;;14.50;60.80;;;;;;5085168;28;20071;-55
2021/04/01 01:18:33;;;;;;;27.20;20.20;;;14.40;61.40;;;;;;5073926;28;20040;-53
2021/04/01 01:21:00;;;;;;;23.48;19.05;;;14.40;63.10;;;;;;5082240;28;20061;-56
2021/04/01 01:23:29;;;;;;;30.58;20.90;;;14.30;63.60;;;;;;5084630;28;20044;-56
2021/04/01 01:25:56;;;;;;;26.55;19.58;;;14.30;63.10;;;;;;5077288;28;20029;-56
2021/04/01 01:28:22;;;;;;;32.78;20.60;;;14.20;63.60;;;;;;5087026;28;20032;-55
2021/04/01 01:30:49;;;;;;;26.08;20.55;;;14.20;63.70;;;;;;5064041;28;20073;-55
2021/04/01 01:33:21;;;;;;;27.65;20.77;;;14.10;63.80;;;;;;5090566;28;20028;-55
2021/04/01 01:35:47;;;;;;;25.77;20.35;;;14.10;63.50;;;;;;5090907;28;20024;-56
2021/04/01 01:38:14;;;;;;;29.40;20.70;;;14.10;64.10;;;;;;5072164;28;20028;-54
2021/04/01 01:40:40;;;;;;;26.63;20.10;;;14.10;64.20;;;;;;5088473;28;20028;-57
2021/04/01 01:43:09;;;;;;;27.92;20.00;;;14.00;64.50;;;;;;5073754;28;20032;-53
2021/04/01 01:45:35;;;;;;;33.28;22.52;;;14.00;64.40;;;;;;5051215;28;20037;-51
2021/04/01 01:48:01;;;;;;;33.20;22.33;;;14.00;63.40;;;;;;5087350;28;20479;-54
2021/04/01 01:50:29;;;;;;;30.35;21.10;;;13.90;62.40;;;;;;5092872;28;20154;-54
2021/04/01 01:52:56;;;;;;;27.80;21.42;;;13.90;62.20;;;;;;5074706;28;20060;-55
2021/04/01 01:55:22;;;;;;;36.35;20.90;;;13.90;62.20;;;;;;5045566;28;20485;-53
2021/04/01 01:57:48;;;;;;;32.83;21.10;;;14.00;62.00;;;;;;5088931;28;20024;-54
2021/04/01 02:00:14;;;;;;;29.33;20.23;;;14.00;62.80;;;;;;5086861;28;20392;-53
2021/04/01 02:02:48;;;;;;;31.65;21.52;;;13.80;63.00;;;;;;5075749;28;20047;-54
2021/04/01 02:05:14;;;;;;;30.00;20.70;;;13.90;63.20;;;;;;5087350;28;20472;-55
2021/04/01 02:07:39;;;;;;;29.05;20.67;;;13.90;63.70;;;;;;5062473;28;20045;-59
2021/04/01 02:10:07;;;;;;;29.60;21.10;;;13.80;64.50;;;;;;5064998;28;20515;-53
2021/04/01 02:12:32;;;;;;;31.05;21.65;;;13.80;64.30;;;;;;5079281;28;20103;-56
2021/04/01 02:14:58;;;;;;;29.27;20.65;;;13.70;64.00;;;;;;5089039;28;20103;-54
2021/04/01 02:17:25;;;;;;;33.60;21.27;;;13.60;64.80;;;;;;5089720;28;20028;-57
2021/04/01 02:19:57;;;;;;;25.77;19.30;;;13.60;66.20;;;;;;5074063;28;20025;-51
2021/04/01 02:22:23;;;;;;;31.08;20.10;;;13.50;66.00;;;;;;5074875;28;20531;-54
2021/04/01 02:24:49;;;;;;;23.33;18.60;;;13.50;66.00;;;;;;5066987;28;20122;-54
2021/04/01 02:27:14;;;;;;;32.38;22.83;;;13.50;65.60;;;;;;5089420;28;20028;-57
2021/04/01 02:29:40;;;;;;;32.13;20.50;;;13.50;64.70;;;;;;5061608;28;20046;-56
2021/04/01 02:32:06;;;;;;;29.45;20.77;;;13.50;65.00;;;;;;5089558;28;20043;-57
2021/04/01 02:34:31;;;;;;;30.63;21.45;;;13.50;65.20;;;;;;5080763;28;20024;-53
2021/04/01 02:36:57;;;;;;;30.90;20.92;;;13.40;66.00;;;;;;5092257;28;20042;-54
2021/04/01 02:39:23;;;;;;;29.17;20.75;;;13.40;66.00;;;;;;5065991;28;20071;-55
2021/04/01 02:41:48;;;;;;;36.35;22.27;;;13.50;65.90;;;;;;5090807;28;20036;-54
2021/04/01 02:44:14;;;;;;;30.38;21.00;;;13.50;65.80;;;;;;5059396;28;20060;-56
2021/04/01 02:46:39;;;;;;;34.00;21.75;;;13.50;64.70;;;;;;5055587;28;20089;-53
2021/04/01 02:49:05;;;;;;;38.13;23.23;;;13.50;64.00;;;;;;5091756;28;20472;-57
2021/04/01 02:51:30;;;;;;;34.15;21.73;;;13.40;63.60;;;;;;5087094;28;20122;-54
2021/04/01 02:53:56;;;;;;;33.60;21.58;;;13.40;63.60;;;;;;5087314;28;20078;-57
2021/04/01 02:56:21;;;;;;;33.20;22.50;;;13.40;63.70;;;;;;5069546;28;20029;-57
2021/04/01 02:58:47;;;;;;;30.42;20.70;;;13.50;63.80;;;;;;5072857;28;20043;-56
2021/04/01 03:01:13;;;;;;;31.85;20.08;;;13.40;63.40;;;;;;5071540;28;20032;-56
2021/04/01 03:03:44;;;;;;;34.83;22.23;;;13.20;63.80;;;;;;5090953;28;20051;-57
2021/04/01 03:06:10;;;;;;;31.67;20.63;;;13.10;64.20;;;;;;5088675;28;20028;-52
2021/04/01 03:08:35;;;;;;;34.03;21.08;;;13.10;64.20;;;;;;5032150;28;20115;-56
2021/04/01 03:11:02;;;;;;;32.85;21.35;;;13.10;64.00;;;;;;5062369;28;20082;-57
2021/04/01 03:13:27;;;;;;;31.75;20.85;;;13.10;64.00;;;;;;5091815;28;20506;-57
2021/04/01 03:15:53;;;;;;;28.67;20.67;;;13.20;64.50;;;;;;5053058;28;20091;-52
2021/04/01 03:18:20;;;;;;;30.25;20.17;;;13.20;64.90;;;;;;5089364;28;20020;-55
2021/04/01 03:20:46;;;;;;;30.73;20.88;;;13.30;65.30;;;;;;5076201;28;20035;-56
2021/04/01 03:23:12;;;;;;;24.45;19.92;;;13.30;65.70;;;;;;5084813;28;20044;-57
2021/04/01 03:25:38;;;;;;;29.65;20.40;;;13.30;67.20;;;;;;5070537;28;20040;-57
2021/04/01 03:28:04;;;;;;;31.90;21.27;;;13.30;67.00;;;;;;5087963;28;20041;-57
2021/04/01 03:30:29;;;;;;;32.15;21.15;;;13.20;67.40;;;;;;5088045;28;20039;-56
2021/04/01 03:32:55;;;;;;;26.63;20.67;;;13.20;67.70;;;;;;5089661;28;20036;-56
2021/04/01 03:35:25;;;;;;;29.35;20.45;;;13.20;68.10;;;;;;5061504;28;20068;-53
2021/04/01 03:37:54;;;;;;;31.45;20.75;;;13.20;68.40;;;;;;5062936;28;20059;-57
2021/04/01 03:40:21;;;;;;;27.60;21.05;;;13.10;68.40;;;;;;5089342;28;20024;-56
2021/04/01 03:42:47;;;;;;;32.10;21.40;;;12.90;68.90;;;;;;5068208;28;20071;-52
2021/04/01 03:45:14;;;;;;;30.45;20.83;;;12.90;69.10;;;;;;5040647;28;20436;-58
2021/04/01 03:47:40;;;;;;;27.38;20.38;;;12.80;69.40;;;;;;5062993;28;20032;-57
2021/04/01 03:50:08;;;;;;;29.48;21.20;;;12.80;69.40;;;;;;5063190;28;20036;-57
2021/04/01 03:52:34;;;;;;;32.65;20.23;;;12.80;69.30;;;;;;5080866;28;20432;-56
2021/04/01 03:55:06;;;;;;;29.52;19.73;;;12.80;68.30;;;;;;5085508;28;20029;-55
2021/04/01 03:57:31;;;;;;;29.23;19.92;;;12.80;68.00;;;;;;5085510;28;20174;-54
2021/04/01 04:03:07;;;;;;;28.27;20.48;;;12.80;68.30;;;;;;4998881;28;20413;-56
2021/04/01 04:05:40;;;;;;;28.27;20.17;;;12.90;68.90;;;;;;5071800;28;20086;-57
2021/04/01 04:13:14;;;;;;;33.38;20.70;;;12.90;68.90;;;;;;5090791;28;20070;-57
2021/04/01 04:15:40;;;;;;;30.52;19.95;;;12.90;69.90;;;;;;5076024;28;20508;-54
2021/04/01 04:18:06;;;;;;;30.25;20.75;;;12.80;69.70;;;;;;5089269;28;20081;-56
2021/04/01 04:20:32;;;;;;;32.28;21.30;;;12.80;69.10;;;;;;5071348;28;20488;-57
2021/04/01 04:22:58;;;;;;;31.70;20.50;;;12.80;69.80;;;;;;5094678;28;20048;-57
2021/04/01 04:25:25;;;;;;;30.42;20.65;;;12.80;69.80;;;;;;5073959;28;20035;-56
2021/04/01 04:28:08;;;;;;;27.75;19.83;;;12.80;70.10;;;;;;5091645;28;20154;-50
2021/04/01 04:30:34;;;;;;;39.38;26.67;;;12.80;70.70;;;;;;5076873;28;20041;-54
2021/04/01 04:33:00;;;;;;;65.15;44.33;;;12.70;71.40;;;;;;5075622;28;20374;-53
2021/04/01 04:35:26;;;;;;;38.30;25.67;;;12.70;71.50;;;;;;5068576;28;20043;-53
2021/04/01 04:37:52;;;;;;;29.58;22.27;;;12.70;70.00;;;;;;5077404;28;20043;-55
2021/04/01 04:40:19;;;;;;;31.40;20.48;;;12.70;70.30;;;;;;5078758;28;20048;-54
2021/04/01 04:42:44;;;;;;;27.98;21.42;;;12.60;70.00;;;;;;5065806;28;20024;-53
2021/04/01 04:45:10;;;;;;;27.45;21.40;;;12.60;70.00;;;;;;5085234;28;20120;-57
2021/04/01 04:47:36;;;;;;;30.92;21.23;;;12.60;70.30;;;;;;5084280;28;20040;-54
2021/04/01 04:50:04;;;;;;;35.63;21.55;;;12.60;70.80;;;;;;5079557;28;20396;-54
2021/04/01 04:52:31;;;;;;;32.50;22.05;;;12.60;70.60;;;;;;5085428;28;20044;-52
2021/04/01 04:54:57;;;;;;;28.52;20.00;;;12.60;70.70;;;;;;5080054;28;20088;-56
2021/04/01 04:57:28;;;;;;;32.10;21.98;;;12.60;71.10;;;;;;5087798;28;20491;-54
2021/04/01 05:05:10;;;;;;;32.33;20.95;;;12.60;71.60;;;;;;5070987;28;20039;-57
2021/04/01 05:07:35;;;;;;;30.17;22.13;;;12.70;71.40;;;;;;5079290;28;20041;-54
2021/04/01 05:10:01;;;;;;;30.80;21.40;;;12.70;70.70;;;;;;5065989;28;20032;-53
2021/04/01 05:12:27;;;;;;;30.05;21.92;;;12.70;70.50;;;;;;5080496;28;20036;-56
2021/04/01 05:14:53;;;;;;;32.60;21.75;;;12.80;70.00;;;;;;5066377;28;20032;-56
2021/04/01 05:17:20;;;;;;;36.00;22.50;;;12.80;70.40;;;;;;5071932;28;20131;-56
2021/04/01 05:19:48;;;;;;;32.60;21.42;;;12.90;69.70;;;;;;5069865;28;20143;-57
2021/04/01 05:24:39;;;;;;;37.15;26.15;;;12.80;69.80;;;;;;5078866;28;20028;-57
2021/04/01 05:27:22;;;;;;;32.20;21.52;;;12.80;69.00;;;;;;5083058;28;20032;-57
2021/04/01 05:29:58;;;;;;;31.25;20.52;;;12.80;68.80;;;;;;5081817;28;20059;-57
2021/04/01 05:32:33;;;;;;;29.02;20.40;;;12.90;69.90;;;;;;5085579;28;20100;-54
2021/04/01 05:35:01;;;;;;;28.00;20.13;;;12.90;70.70;;;;;;5075672;28;20032;-53
2021/04/01 05:37:27;;;;;;;26.58;19.65;;;12.90;71.00;;;;;;5085303;28;20466;-56
2021/04/01 05:39:54;;;;;;;30.70;20.90;;;12.90;71.30;;;;;;5068428;28;20054;-55
2021/04/01 05:42:23;;;;;;;33.33;21.02;;;12.70;69.80;;;;;;5083786;28;20024;-54
2021/04/01 05:47:34;;;;;;;28.30;20.50;;;12.80;69.80;;;;;;5084576;28;20033;-58
2021/04/01 05:53:28;;;;;;;33.53;20.75;;;12.80;70.40;;;;;;5085966;28;20036;-56
2021/04/01 06:00:52;;;;;;;32.80;21.15;;;12.60;68.90;;;;;;5088699;28;20396;-57
2021/04/01 06:06:08;;;;;;;36.92;21.05;;;12.40;68.10;;;;;;5078120;28;20028;-56
2021/04/01 06:08:42;;;;;;;32.72;20.77;;;12.30;68.50;;;;;;5061940;28;20504;-52
2021/04/01 06:11:08;;;;;;;29.98;21.15;;;12.10;68.90;;;;;;5069833;28;20028;-51
2021/04/01 06:16:45;;;;;;;29.73;19.15;;;12.30;68.10;;;;;;5041733;28;20112;-56
2021/04/01 06:19:13;;;;;;;31.25;18.23;;;12.40;67.70;;;;;;5063600;28;20040;-54
2021/04/01 06:21:43;;;;;;;38.63;19.65;;;12.50;67.30;;;;;;5086680;28;20046;-54
2021/04/01 06:24:21;;;;;;;31.55;18.10;;;12.50;67.10;;;;;;5083741;28;20028;-55
2021/04/01 06:27:02;;;;;;;34.05;19.50;;;12.70;66.90;;;;;;5087784;28;20043;-54
2021/04/01 06:29:30;;;;;;;38.15;18.27;;;12.80;66.40;;;;;;5083290;28;20031;-54
2021/04/01 06:32:00;;;;;;;68.75;21.95;;;13.00;65.70;;;;;;5078657;28;20480;-57
2021/04/01 06:34:43;;;;;;;94.20;22.92;;;13.10;65.90;;;;;;5094705;28;20024;-56
2021/04/01 06:40:03;;;;;;;54.78;22.15;;;13.10;65.60;;;;;;5064129;28;20040;-57
2021/04/01 06:42:52;;;;;;;48.03;21.42;;;13.10;65.40;;;;;;5051910;28;20036;-57
2021/04/01 06:45:22;;;;;;;46.58;22.58;;;13.20;65.70;;;;;;5082801;28;20054;-54
2021/04/01 06:48:13;;;;;;;39.30;19.48;;;13.30;65.30;;;;;;5068986;28;20020;-53
2021/04/01 06:50:40;;;;;;;34.58;18.63;;;13.30;65.20;;;;;;5080799;28;20032;-62
2021/04/01 06:53:16;;;;;;;37.75;19.85;;;13.40;65.10;;;;;;5073314;28;20033;-53
2021/04/01 06:55:53;;;;;;;40.55;19.55;;;13.40;64.80;;;;;;5075232;28;20577;-53
2021/04/01 06:58:31;;;;;;;36.45;20.30;;;13.50;65.10;;;;;;5085600;28;20040;-58
2021/04/01 07:01:03;;;;;;;35.65;18.75;;;13.50;64.80;;;;;;5076964;28;20059;-59
2021/04/01 07:03:47;;;;;;;31.23;18.23;;;13.70;64.30;;;;;;5092981;28;20023;-56
2021/04/01 07:06:28;;;;;;;33.58;19.85;;;13.70;64.30;;;;;;5068394;28;20085;-56
2021/04/01 07:14:04;;;;;;;39.88;20.88;;;14.00;64.50;;;;;;5086673;28;20637;-53
2021/04/01 07:17:23;;;;;;;33.78;19.75;;;14.10;64.90;;;;;;5068781;28;20063;-54
2021/04/01 07:47:33;;;;;;;37.83;20.02;;;14.10;65.70;;;;;;5055705;28;20357;-59
2021/04/01 07:50:18;;;;;;;35.30;19.77;;;14.40;64.80;;;;;;5065746;28;20044;-56
2021/04/01 07:52:55;;;;;;;38.33;19.23;;;14.50;64.70;;;;;;5038897;28;20036;-57
2021/04/01 08:00:46;;;;;;;39.58;19.95;;;14.80;62.80;;;;;;5070971;28;20023;-56
2021/04/01 08:03:53;;;;;;;35.03;19.95;;;14.30;64.50;;;;;;5088020;28;20501;-56
2021/04/01 08:06:16;;;;;;;41.95;19.73;;;14.70;63.80;;;;;;5084727;28;20028;-53
2021/04/01 08:08:46;;;;;;;38.65;19.98;;;14.70;63.50;;;;;;5079857;28;20036;-58
2021/04/01 08:11:18;;;;;;;33.35;18.70;;;14.50;64.20;;;;;;5066080;28;20032;-56
2021/04/01 08:13:57;;;;;;;35.90;18.50;;;14.40;64.60;;;;;;5083637;28;20041;-58
2021/04/01 08:16:27;;;;;;;32.50;19.35;;;14.50;64.90;;;;;;5072087;28;20021;-54
2021/04/01 08:18:52;;;;;;;25.58;17.83;;;14.80;64.50;;;;;;5079957;28;20036;-57
2021/04/01 08:21:18;;;;;;;27.50;18.10;;;14.90;64.20;;;;;;5056040;28;20119;-54
2021/04/01 08:23:47;;;;;;;31.35;18.23;;;15.10;63.70;;;;;;5069171;28;20100;-52
2021/04/01 08:26:17;;;;;;;34.38;19.00;;;15.30;64.10;;;;;;5073029;28;20129;-50
2021/04/01 08:33:56;;;;;;;29.85;17.75;;;15.60;63.10;;;;;;5061456;28;20112;-55
2021/04/01 08:36:27;;;;;;;29.23;18.27;;;15.70;63.00;;;;;;5086835;28;20032;-56
2021/04/01 08:38:55;;;;;;;27.45;17.45;;;15.70;62.50;;;;;;5064837;28;20025;-54
2021/04/01 08:41:35;;;;;;;30.08;18.08;;;15.80;63.70;;;;;;5077896;28;20045;-52
2021/04/01 08:44:22;;;;;;;28.20;19.30;;;15.90;63.00;;;;;;5065636;28;20024;-57
2021/04/01 08:46:53;;;;;;;28.13;17.58;;;16.10;62.10;;;;;;5073578;28;20032;-57
2021/04/01 08:49:35;;;;;;;29.05;19.42;;;16.10;61.10;;;;;;5070646;28;20054;-54
2021/04/01 08:52:24;;;;;;;32.33;19.05;;;16.20;61.20;;;;;;5076688;28;20020;-55
2021/04/01 08:55:06;;;;;;;30.50;19.90;;;16.20;62.90;;;;;;5062178;28;20507;-55
2021/04/01 08:57:56;;;;;;;35.63;19.55;;;16.10;63.20;;;;;;5062204;28;20036;-53
2021/04/01 09:00:25;;;;;;;36.30;20.00;;;15.70;65.10;;;;;;5061585;28;20059;-55
2021/04/01 09:02:53;;;;;;;29.25;19.92;;;15.80;63.70;;;;;;5058842;28;20492;-56
2021/04/01 09:05:20;;;;;;;34.10;20.20;;;16.10;63.10;;;;;;5056117;28;20028;-53
2021/04/01 09:08:01;;;;;;;32.70;21.27;;;16.40;62.50;;;;;;5058721;28;20029;-55
2021/04/01 09:10:33;;;;;;;31.33;20.40;;;16.60;61.90;;;;;;5054105;28;20044;-57
2021/04/01 09:13:16;;;;;;;30.33;20.50;;;16.70;61.90;;;;;;5045082;28;20025;-56
2021/04/01 09:15:50;;;;;;;30.80;19.58;;;16.90;61.10;;;;;;5055918;28;20048;-53
2021/04/01 09:18:35;;;;;;;;;;;17.00;60.60;;;;;;5089524;28;20031;-57
2021/04/01 09:21:03;;;;;;;32.88;21.20;;;17.20;59.30;;;;;;5082682;28;19960;-53
2021/04/01 09:23:40;;;;;;;30.60;21.67;;;17.50;58.80;;;;;;5089271;28;20040;-55
2021/04/01 09:26:08;;;;;;;28.02;19.80;;;17.60;58.40;;;;;;5085853;28;20063;-51
2021/04/01 09:28:41;;;;;;;34.28;20.75;;;17.70;58.10;;;;;;5089143;28;20441;-52
2021/04/01 09:31:07;;;;;;;29.50;20.17;;;17.90;58.00;;;;;;5077700;28;20535;-53
2021/04/01 09:33:36;;;;;;;30.20;20.98;;;18.00;58.10;;;;;;5085288;28;20492;-56
2021/04/01 09:36:12;;;;;;;36.13;21.30;;;18.10;58.30;;;;;;5079072;28;20035;-53
2021/04/01 09:38:40;;;;;;;32.47;20.35;;;18.30;57.40;;;;;;5064153;28;20029;-54
2021/04/01 09:41:06;;;;;;;31.17;21.13;;;18.50;56.40;;;;;;5071794;28;20028;-55
2021/04/01 09:43:32;;;;;;;30.88;22.55;;;18.70;56.20;;;;;;5071979;28;20032;-58
2021/04/01 09:46:12;;;;;;;39.17;22.05;;;18.80;54.80;;;;;;5072333;28;20024;-56
2021/04/01 09:49:04;;;;;;;34.30;22.58;;;18.70;54.70;;;;;;5070764;28;20124;-53
2021/04/01 09:51:31;;;;;;;36.70;23.95;;;18.80;54.30;;;;;;5063398;28;20056;-55
2021/04/01 09:53:58;;;;;;;35.58;23.98;;;18.90;53.00;;;;;;5070043;28;20037;-54
2021/04/01 09:56:33;;;;;;;32.67;21.33;;;18.90;52.90;;;;;;5066200;28;20013;-56
2021/04/01 09:58:59;;;;;;;36.72;23.17;;;18.90;54.10;;;;;;5066496;28;20468;-56
2021/04/01 10:01:39;;;;;;;31.25;20.98;;;18.80;53.90;;;;;;5071876;28;20098;-57
2021/04/01 10:04:14;;;;;;;33.45;21.73;;;18.90;53.70;;;;;;5065286;28;20024;-57
2021/04/01 10:06:43;;;;;;;34.65;21.75;;;18.90;54.10;;;;;;5061458;28;20100;-55
2021/04/01 10:09:23;;;;;;;32.03;22.23;;;19.00;52.90;;;;;;5062962;28;20078;-55
2021/04/01 10:11:59;;;;;;;35.92;22.65;;;19.10;53.20;;;;;;5069350;28;20439;-56
2021/04/01 10:14:27;;;;;;;39.25;23.70;;;19.30;52.70;;;;;;5072647;28;20539;-57
2021/04/01 10:17:01;;;;;;;36.35;22.85;;;19.30;52.70;;;;;;5093086;28;20036;-53
2021/04/01 10:19:28;;;;;;;;;;;19.40;51.60;;;;;;5080479;28;20036;-56
2021/04/01 10:21:55;;;;;;;38.30;22.33;;;19.50;50.50;;;;;;5087958;28;20321;-56
2021/04/01 10:24:37;;;;;;;40.90;23.63;;;19.60;50.70;;;;;;5087816;28;20032;-56
2021/04/01 10:27:12;;;;;;;42.17;23.90;;;19.80;50.60;;;;;;5086099;28;20028;-58
2021/04/01 10:29:58;;;;;;;42.70;23.02;;;20.00;49.90;;;;;;5087784;28;20078;-52
2021/04/01 10:32:41;;;;;;;41.75;24.40;;;20.10;49.10;;;;;;5092459;28;20444;-52
2021/04/01 10:35:10;;;;;;;45.13;26.10;;;20.00;48.90;;;;;;5083832;28;20056;-58
2021/04/01 10:37:37;;;;;;;40.50;24.75;;;19.90;47.50;;;;;;5065963;28;20052;-57
2021/04/01 10:40:08;;;;;;;41.47;26.10;;;19.90;47.20;;;;;;5070725;28;20047;-56
2021/04/01 10:42:34;;;;;;;37.17;26.90;;;19.90;47.10;;;;;;5068083;28;20041;-56
2021/04/01 10:45:12;;;;;;;39.90;26.08;;;19.90;48.10;;;;;;5078363;28;20089;-57
2021/04/01 10:48:01;;;;;;;38.15;26.15;;;19.60;48.60;;;;;;5052693;28;20134;-57
2021/04/01 10:50:28;;;;;;;43.60;26.77;;;19.80;48.20;;;;;;5062556;28;20084;-57
2021/04/01 10:52:55;;;;;;;37.75;25.77;;;19.90;47.30;;;;;;5069285;28;20059;-52
2021/04/01 10:55:27;;;;;;;40.17;27.45;;;20.00;47.90;;;;;;5059352;28;20056;-61
2021/04/01 10:57:53;;;;;;;46.97;28.38;;;20.30;47.40;;;;;;5080337;28;20039;-56
2021/04/01 11:00:19;;;;;;;45.70;29.10;;;20.10;47.20;;;;;;5068649;28;20040;-54
2021/04/01 11:02:57;;;;;;;44.30;29.75;;;20.00;47.70;;;;;;5064158;28;20028;-53
2021/04/01 11:05:24;;;;;;;46.33;29.67;;;19.90;47.60;;;;;;5084757;28;20037;-56
2021/04/01 11:07:57;;;;;;;43.95;27.25;;;20.00;47.40;;;;;;5063029;28;20395;-57
2021/04/01 11:10:28;;;;;;;41.13;27.75;;;19.90;47.90;;;;;;5062829;28;20029;-57
2021/04/01 11:12:56;;;;;;;47.55;29.35;;;20.10;47.70;;;;;;5090731;28;20128;-56
2021/04/01 11:15:27;;;;;;;42.45;28.63;;;20.00;47.30;;;;;;5086016;28;20064;-59
2021/04/01 11:18:17;;;;;;;44.10;28.48;;;20.10;47.20;;;;;;5077067;28;20028;-58
2021/04/01 11:20:48;;;;;;;41.35;29.75;;;20.10;47.00;;;;;;5065098;28;20028;-57
2021/04/01 11:23:22;;;;;;;43.10;29.05;;;20.00;47.70;;;;;;5073767;28;20047;-56
2021/04/01 11:25:56;;;;;;;61.40;32.03;;;19.90;47.90;;;;;;5060497;28;20414;-57
2021/04/01 11:28:36;;;;;;;56.70;32.25;;;19.80;48.00;;;;;;5070802;28;20040;-55
2021/04/01 11:31:02;;;;;;;46.72;30.08;;;19.60;48.40;;;;;;5081280;28;20056;-54
2021/04/01 11:33:29;;;;;;;55.22;31.48;;;19.80;48.40;;;;;;5087876;28;20032;-55
2021/04/01 11:36:01;;;;;;;52.53;31.17;;;19.90;48.40;;;;;;5083727;28;20029;-56
2021/04/01 11:38:29;;;;;;;43.67;30.20;;;19.90;49.40;;;;;;5063812;28;20084;-57
2021/04/01 11:41:02;;;;;;;60.22;30.60;;;19.90;49.10;;;;;;5066827;28;20029;-62
2021/04/01 11:43:31;;;;;;;64.82;33.00;;;20.00;49.20;;;;;;5064730;28;20071;-54
2021/04/01 11:45:58;;;;;;;49.03;33.03;;;20.20;48.70;;;;;;5051175;28;20161;-56
2021/04/01 11:48:24;;;;;;;51.83;33.25;;;20.40;47.60;;;;;;5061846;28;20120;-54
2021/04/01 11:50:51;;;;;;;48.90;31.35;;;20.60;47.70;;;;;;5085575;28;20024;-56
2021/04/01 11:53:17;;;;;;;48.65;33.83;;;20.70;47.50;;;;;;5087174;28;20033;-54
2021/04/01 11:55:53;;;;;;;48.75;32.92;;;20.80;46.60;;;;;;5070294;28;20053;-59
2021/04/01 11:58:21;;;;;;;54.45;35.28;;;20.80;47.10;;;;;;5079004;28;20043;-55
2021/04/01 12:00:48;;;;;;;52.58;34.05;;;20.70;46.70;;;;;;5088124;28;20055;-55
2021/04/01 12:03:21;;;;;;;51.78;34.58;;;21.00;46.40;;;;;;5072470;28;20092;-56
2021/04/01 12:05:49;;;;;;;58.63;36.50;;;21.30;45.90;;;;;;5069757;28;20031;-59
2021/04/01 12:08:15;;;;;;;54.78;36.33;;;21.30;46.60;;;;;;5063987;28;20040;-56
2021/04/01 12:10:41;;;;;;;52.08;38.05;;;21.10;46.20;;;;;;5057018;28;20440;-60
2021/04/01 12:13:07;;;;;;;55.65;38.03;;;20.80;46.30;;;;;;5082961;28;20033;-56
2021/04/01 12:15:40;;;;;;;56.10;36.95;;;20.60;47.00;;;;;;5091160;28;20138;-57
2021/04/01 12:18:09;;;;;;;53.13;36.63;;;20.60;47.30;;;;;;5068154;28;20107;-53
2021/04/01 12:20:36;;;;;;;54.20;37.35;;;20.60;47.20;;;;;;5081319;28;20066;-53
2021/04/01 12:23:19;;;;;;;52.60;36.63;;;20.60;47.50;;;;;;5072412;28;20039;-58
2021/04/01 12:25:45;;;;;;;67.57;38.05;;;20.60;47.70;;;;;;5070866;28;20024;-59
2021/04/01 12:28:21;;;;;;;52.90;36.78;;;20.50;47.80;;;;;;5073362;28;20139;-57
2021/04/01 12:30:49;;;;;;;53.17;37.38;;;20.60;47.10;;;;;;5070553;28;20028;-58
2021/04/01 12:33:19;;;;;;;57.88;39.28;;;20.50;45.50;;;;;;5069984;28;20055;-57
2021/04/01 12:36:00;;;;;;;58.53;37.42;;;20.80;44.90;;;;;;5062543;28;20048;-56
2021/04/01 12:38:26;;;;;;;57.33;38.13;;;20.60;45.30;;;;;;5065420;28;20048;-54
2021/04/01 12:40:52;;;;;;;55.42;37.67;;;20.50;45.80;;;;;;5073311;28;20033;-55
2021/04/01 12:43:17;;;;;;;54.58;38.08;;;20.50;45.70;;;;;;5094012;28;20031;-52
2021/04/01 12:45:43;;;;;;;62.28;40.78;;;20.50;45.60;;;;;;5095499;28;20434;-55
2021/04/01 12:48:16;;;;;;;59.97;41.78;;;20.30;46.80;;;;;;5092459;28;20099;-57
2021/04/01 12:50:44;;;;;;;65.55;43.42;;;20.20;45.80;;;;;;5094982;28;20032;-52
2021/04/01 12:53:10;;;;;;;69.63;42.63;;;20.10;45.70;;;;;;5074570;28;20554;-56
2021/04/01 12:58:16;;;;;;;59.88;41.63;;;19.90;42.60;;;;;;5065210;28;20032;-59
2021/04/01 13:00:48;;;;;;;;;;;20.00;42.80;;;;;;5084210;28;20028;-59
2021/04/01 13:03:13;;;;;;;63.35;40.95;;;20.00;43.10;;;;;;5060064;28;19923;-56
2021/04/01 13:05:43;;;;;;;59.63;40.05;;;19.80;42.90;;;;;;5072370;28;20655;-55
2021/04/01 13:10:44;;;;;;;59.17;40.45;;;19.90;43.20;;;;;;5070695;28;20755;-54
2021/04/01 13:13:10;;;;;;;58.30;38.28;;;20.00;42.80;;;;;;5090034;28;20095;-57
2021/04/01 13:15:38;;;;;;;62.40;38.53;;;20.20;42.20;;;;;;5081627;28;20435;-55
2021/04/01 13:18:05;;;;;;;62.72;39.75;;;20.30;41.60;;;;;;5058384;28;20052;-55
2021/04/01 13:20:31;;;;;;;62.28;40.72;;;20.30;41.90;;;;;;5068929;28;20079;-56
2021/04/01 13:25:23;;;;;;;66.75;42.95;;;20.20;43.30;;;;;;5072256;28;20514;-55
2021/04/01 13:27:51;;;;;;;67.53;44.45;;;20.10;44.00;;;;;;5081344;28;20037;-57
2021/04/01 13:30:22;;;;;;;67.90;46.25;;;20.00;44.70;;;;;;5057779;28;20054;-56
2021/04/01 13:33:31;;;;;;;77.30;47.80;;;20.20;44.80;;;;;;5084814;28;20036;-56
2021/04/01 13:35:57;;;;;;;71.53;47.13;;;20.20;44.80;;;;;;5091302;28;20090;-53
2021/04/01 13:38:26;;;;;;;74.75;47.28;;;20.30;45.00;;;;;;5079386;28;20074;-55
2021/04/01 13:40:53;;;;;;;74.78;47.97;;;20.50;45.30;;;;;;5072055;28;20112;-52
2021/04/01 13:43:23;;;;;;;73.20;46.83;;;20.60;44.70;;;;;;5080035;28;20119;-54
2021/04/01 13:45:50;;;;;;;72.95;46.10;;;20.50;45.00;;;;;;5059508;28;20063;-53
2021/04/01 13:48:23;;;;;;;69.45;45.10;;;20.30;45.30;;;;;;5073260;28;20115;-54
2021/04/01 13:54:07;;;;;;;61.53;38.38;;;20.10;44.30;;;;;;5053395;28;20040;-50
2021/04/01 13:56:41;;;;;;;58.75;37.72;;;20.10;43.30;;;;;;5083150;28;20033;-52
2021/04/01 13:59:22;;;;;;;;;;;20.10;42.90;;;;;;5076880;28;20050;-54
2021/04/01 14:10:20;;;;;;;64.85;36.92;;;20.00;42.80;;;;;;5068936;28;20025;-59
2021/04/01 14:12:50;;;;;;;64.18;37.50;;;19.90;42.30;;;;;;5069920;28;20055;-56
2021/04/01 14:15:16;;;;;;;65.95;37.08;;;19.70;42.50;;;;;;5080739;28;20115;-56
2021/04/01 14:17:44;;;;;;;63.53;37.13;;;19.60;43.00;;;;;;5072848;28;20032;-50
2021/04/01 14:20:14;;;;;;;61.55;36.53;;;19.60;43.00;;;;;;5074213;28;20419;-55
2021/04/01 14:22:42;;;;;;;63.88;37.22;;;19.70;43.40;;;;;;5088202;28;20040;-54